Terminal Aerodrome Forecast
Issued by NWS

Home | Current Version | Previous Version | Text Only | Print | Product List | Glossary On
Versions: 1 2 3 4 5 6 7 8 9 10 11 12 13 14 15 16
000
FTUS46 KMFR 300549
TAFOTH
TAF
KOTH 300549Z 3006/3106 17010G17KT P6SM SCT015 SCT025 BKN100
      TEMPO 3006/3008 -SHRA BKN015 OVC025
     FM300800 20009KT 5SM -SHRA BR BKN015 OVC025
     FM301200 21012KT P6SM -SHRA BKN020 BKN035 BKN090
     FM310200 21010KT P6SM VCSH OVC020=

USA.gov is the U.S. government's official web portal to all federal, state and local government web resources and services.